Ely, MN (55731)

5:08 AM CDT on July 24, 2016 (GMT -0500)
Ely near the school | | Change Station

Elev 1473 ft 47.90 °N, 91.86 °W | Updated 2 minutes ago

Overcast
Overcast
66.4 °F
Feels Like 66.4 °F
N
1.1
Wind Variable Wind from West

Today
High -- | Low -- °F
--% Chance of Precip.
Yesterday
High -- | Low -- °F
Precip. -- in
Pressure 29.73 in
Visibility 10.0 miles
Clouds Mostly Cloudy 800 ft
Overcast 1400 ft
Dew Point 66 °F
Humidity 99%
Rainfall 0.06 in
Snow Depth Not available.
5:34 AM 8:52 PM
Waning Gibbous, 77% visible
METAR KELO 240954Z AUTO 25005KT 10SM BKN008 OVC014 19/18 A2973 RMK AO2
Pressure 29.73 in
Visibility 10.0 miles
Clouds Mostly Cloudy 800 ft
Overcast 1400 ft
Dew Point 66 °F
Humidity 99%
Rainfall 0.06 in
Snow Depth Not available.
5:34 AM 8:52 PM
Waning Gibbous, 77% visible
METAR KELO 240954Z AUTO 25005KT 10SM BKN008 OVC014 19/18 A2973 RMK AO2

10-Day Weather Forecast

Almanac

Astronomy

Jul. 24, 2016 Rise Set
Actual Time
Civil Twilight
Nautical Twilight
Astronomical Twilight
Moon
Length of Visible Light
Length of Day
Tomorrow will be .
, % of the Moon is Illuminated

Today's Extremes

State Highs State Lows

Community

WunderPhotos

Upload Photos

1,927,040 photos uploaded!

WunderBlog® & News

Nearby

Air Quality

  Air Quality AQ Index Pollutant
Not available.

Snow Depth

Station Depth Elevation

Earthquake Activity

City Distance Mag. Time & Date
Minimum magnitude displayed is 2.5.

Coastal Water Temperatures

Place Temperature

Stations

Nearby Weather Stations

Station Location Temp. Windchill Dew Point Humidity Wind Precip. Elev Updated Type
                   

Watches & Warnings

There are currently no watches in effect.